Time;durP1;ratioP1;P1;durP2;ratioP2;P2;SDS_P1;SDS_P2;PMS_P1;PMS_P2;Temp;Humidity;BMP_temperature;BMP_pressure;BME280_temperature;BME280_humidity;BME280_pressure;Samples;Min_cycle;Max_cycle;Signal;HPM_P1;HPM_P2
2022/04/28 00:01:50;;;;;;;17.38;4.18;;;15.20;99.90;;;;;;4959107;28;20027;-90
2022/04/28 00:04:17;;;;;;;14.25;3.63;;;15.20;99.90;;;;;;4975257;28;20571;-90
2022/04/28 00:06:44;;;;;;;13.38;4.72;;;15.20;99.90;;;;;;4959350;28;20033;-89
2022/04/28 00:09:11;;;;;;;8.65;4.30;;;15.20;99.90;;;;;;4958401;28;20031;-90
2022/04/28 00:11:40;;;;;;;12.50;4.68;;;15.20;99.90;;;;;;4958915;28;20113;-89
2022/04/28 00:14:08;;;;;;;15.35;4.40;;;15.20;99.90;;;;;;4959088;28;20026;-90
2022/04/28 00:16:41;;;;;;;14.10;5.38;;;15.20;99.90;;;;;;4975099;28;20023;-90
2022/04/28 00:19:08;;;;;;;13.13;5.97;;;15.10;99.90;;;;;;4974978;28;20515;-89
2022/04/28 00:21:35;;;;;;;25.33;5.85;;;15.10;99.90;;;;;;4959007;28;20027;-90
2022/04/28 00:24:02;;;;;;;14.32;5.65;;;15.10;99.90;;;;;;4958582;28;20031;-89
2022/04/28 00:26:28;;;;;;;17.83;5.90;;;15.10;99.90;;;;;;4958696;28;20488;-90
2022/04/28 00:28:56;;;;;;;11.63;5.60;;;15.10;99.90;;;;;;4958742;28;20023;-90
2022/04/28 00:31:22;;;;;;;19.95;6.80;;;15.10;99.90;;;;;;4958664;28;20527;-89
2022/04/28 00:33:49;;;;;;;17.42;6.20;;;15.10;99.90;;;;;;4958584;28;20031;-90
2022/04/28 00:36:16;;;;;;;12.00;5.53;;;15.10;99.90;;;;;;4958760;28;20392;-90
2022/04/28 00:38:43;;;;;;;30.23;6.50;;;15.00;99.90;;;;;;4958444;28;20039;-90
2022/04/28 00:41:10;;;;;;;19.20;6.30;;;15.00;99.90;;;;;;4958596;28;20025;-90
2022/04/28 00:43:54;;;;;;;15.55;6.38;;;15.00;99.90;;;;;;4958446;28;20083;-90
2022/04/28 00:46:21;;;;;;;18.30;6.70;;;15.00;99.90;;;;;;4958537;28;20030;-89
2022/04/28 00:51:35;;;;;;;22.80;6.63;;;14.90;99.90;;;;;;4974470;28;20026;-90
2022/04/28 00:54:04;;;;;;;19.42;6.82;;;15.00;99.90;;;;;;4958378;28;20046;-90
2022/04/28 00:56:31;;;;;;;16.30;6.07;;;15.00;99.90;;;;;;4958242;28;20105;-90
2022/04/28 00:59:04;;;;;;;25.80;6.47;;;14.90;99.90;;;;;;4958303;28;20065;-91
2022/04/28 01:01:33;;;;;;;15.37;6.70;;;14.90;99.90;;;;;;4958431;28;20042;-89
2022/04/28 01:04:01;;;;;;;15.10;6.63;;;14.90;99.90;;;;;;4958508;28;20042;-90
2022/04/28 01:06:28;;;;;;;19.85;5.82;;;14.90;99.90;;;;;;4958222;28;20023;-90
2022/04/28 01:08:57;;;;;;;14.60;6.47;;;14.90;99.90;;;;;;4958346;28;20097;-90
2022/04/28 01:11:27;;;;;;;16.85;6.65;;;14.90;99.90;;;;;;4958367;28;20031;-89
2022/04/28 01:14:00;;;;;;;22.75;6.40;;;14.90;99.90;;;;;;4959126;28;20023;-91
2022/04/28 01:16:35;;;;;;;14.68;5.90;;;14.80;99.90;;;;;;4959471;28;20031;-89
2022/04/28 01:19:03;;;;;;;21.67;6.90;;;14.80;99.90;;;;;;4958287;28;20066;-89
2022/04/28 01:21:30;;;;;;;15.23;6.22;;;14.80;99.90;;;;;;4961608;28;20019;-89
2022/04/28 01:24:03;;;;;;;21.90;6.20;;;14.80;99.90;;;;;;4962701;28;20042;-90
2022/04/28 01:26:31;;;;;;;17.73;6.40;;;14.80;99.90;;;;;;4962272;28;20078;-88
2022/04/28 01:28:58;;;;;;;17.15;6.85;;;14.70;99.90;;;;;;4962046;28;20046;-90
2022/04/28 01:31:25;;;;;;;20.08;6.43;;;14.70;99.90;;;;;;4962095;28;20026;-90
2022/04/28 01:33:59;;;;;;;20.35;6.20;;;14.70;99.90;;;;;;4962698;28;20030;-90
2022/04/28 01:36:28;;;;;;;20.90;6.72;;;14.70;99.90;;;;;;4962094;28;20031;-90
2022/04/28 01:38:55;;;;;;;25.13;6.97;;;14.60;99.90;;;;;;4961846;28;20063;-89
2022/04/28 01:41:22;;;;;;;16.23;6.03;;;14.70;99.90;;;;;;4961630;28;20485;-90
2022/04/28 01:43:48;;;;;;;18.48;7.22;;;14.60;99.90;;;;;;4961530;28;20416;-90
2022/04/28 01:46:16;;;;;;;20.48;7.47;;;14.60;99.90;;;;;;4962739;28;20457;-90
2022/04/28 01:49:18;;;;;;;16.48;6.60;;;14.60;99.90;;;;;;4938612;29;20059;-89
2022/04/28 01:55:14;;;;;;;21.60;7.75;;;14.60;99.90;;;;;;4938528;29;20035;-89
2022/04/28 01:58:08;;;;;;;18.97;8.07;;;14.60;99.90;;;;;;4938494;29;20075;-90
2022/04/28 02:00:56;;;;;;;21.02;7.18;;;14.60;99.90;;;;;;4938381;29;20059;-89
2022/04/28 02:03:26;;;;;;;26.70;8.32;;;14.50;99.90;;;;;;4938026;29;20039;-90
2022/04/28 02:05:58;;;;;;;22.37;7.87;;;14.50;99.90;;;;;;4938596;29;20078;-90
2022/04/28 02:08:26;;;;;;;25.27;8.00;;;14.50;99.90;;;;;;4938301;29;20040;-90
2022/04/28 02:10:55;;;;;;;19.73;7.75;;;14.60;99.90;;;;;;4938033;29;20039;-90
2022/04/28 02:13:45;;;;;;;19.60;7.53;;;14.60;99.90;;;;;;4929156;29;20032;-90
2022/04/28 02:16:44;;;;;;;18.58;7.00;;;14.60;99.90;;;;;;4938190;29;20087;-90
2022/04/28 02:19:24;;;;;;;19.85;8.18;;;14.60;99.90;;;;;;4938085;29;20040;-89
2022/04/28 02:21:51;;;;;;;21.98;6.88;;;14.60;99.90;;;;;;4938026;29;20039;-91
2022/04/28 02:24:21;;;;;;;28.92;7.75;;;14.60;99.90;;;;;;4974249;28;20177;-90
2022/04/28 02:26:49;;;;;;;23.30;7.57;;;14.60;99.90;;;;;;4961141;28;20027;-90
2022/04/28 02:29:16;;;;;;;25.52;8.05;;;14.60;99.90;;;;;;4960903;28;20117;-89
2022/04/28 02:31:45;;;;;;;24.45;8.13;;;14.60;99.90;;;;;;4960237;28;20075;-90
2022/04/28 02:34:12;;;;;;;27.95;7.90;;;14.60;99.90;;;;;;4960793;28;20023;-91
2022/04/28 02:36:43;;;;;;;19.63;7.70;;;14.60;99.90;;;;;;4961294;28;20488;-89
2022/04/28 02:39:10;;;;;;;23.10;7.13;;;14.60;99.90;;;;;;4960766;28;20043;-91
2022/04/28 02:41:38;;;;;;;26.95;7.80;;;14.60;99.90;;;;;;4960834;28;20026;-90
2022/04/28 02:44:04;;;;;;;20.50;7.68;;;14.60;99.90;;;;;;4960428;28;20054;-91
2022/04/28 02:46:31;;;;;;;26.85;7.28;;;14.60;99.90;;;;;;4960519;28;20031;-89
2022/04/28 02:49:03;;;;;;;20.10;6.53;;;14.50;99.90;;;;;;4961165;28;20034;-90
2022/04/28 02:51:35;;;;;;;24.35;8.18;;;14.50;99.90;;;;;;4961181;28;20122;-90
2022/04/28 02:54:05;;;;;;;18.27;7.57;;;14.50;99.90;;;;;;4960685;28;20109;-90
2022/04/28 02:56:34;;;;;;;19.75;6.53;;;14.50;99.90;;;;;;4960651;28;20046;-90
2022/04/28 02:59:05;;;;;;;16.48;6.07;;;14.50;99.90;;;;;;4960500;28;20045;-90
2022/04/28 03:01:34;;;;;;;21.58;6.10;;;14.50;99.90;;;;;;4960417;28;20492;-91
2022/04/28 03:04:02;;;;;;;19.45;6.15;;;14.50;99.90;;;;;;4960369;28;20133;-90
2022/04/28 03:12:01;;;;;;;17.85;6.13;;;14.40;99.90;;;;;;4976266;28;20121;-91
2022/04/28 03:14:28;;;;;;;19.85;6.47;;;14.40;99.90;;;;;;4960018;28;20027;-90
2022/04/28 03:16:55;;;;;;;33.65;7.35;;;14.40;99.90;;;;;;4959992;28;20067;-87
2022/04/28 03:19:22;;;;;;;21.65;7.07;;;14.40;99.90;;;;;;4959981;28;20023;-87
2022/04/28 03:21:49;;;;;;;22.48;5.93;;;14.30;99.90;;;;;;4959866;28;20043;-87
2022/04/28 03:24:16;;;;;;;21.75;6.53;;;14.30;99.90;;;;;;4960107;28;20037;-86
2022/04/28 03:26:44;;;;;;;16.42;6.97;;;14.30;99.90;;;;;;4959751;28;20026;-86
2022/04/28 03:29:26;;;;;;;24.95;6.60;;;14.30;99.90;;;;;;4960220;28;20027;-86
2022/04/28 03:31:53;;;;;;;22.02;6.25;;;14.30;99.90;;;;;;4975757;28;20030;-85
2022/04/28 03:34:40;;;;;;;22.00;6.15;;;14.30;99.90;;;;;;4885817;29;20031;-87
2022/04/28 03:37:07;;;;;;;19.13;6.68;;;14.20;99.90;;;;;;4882965;29;20138;-87
2022/04/28 03:39:38;;;;;;;22.88;7.28;;;14.20;99.90;;;;;;4883170;29;20128;-87
2022/04/28 03:42:06;;;;;;;12.75;6.35;;;14.20;99.90;;;;;;4883042;29;20115;-85
2022/04/28 03:44:34;;;;;;;19.92;6.93;;;14.20;99.90;;;;;;4882821;29;20432;-86
2022/04/28 03:47:04;;;;;;;22.58;6.95;;;14.20;99.90;;;;;;4882979;29;20522;-87
2022/04/28 03:49:32;;;;;;;22.80;6.25;;;14.10;99.90;;;;;;4882881;29;20172;-88
2022/04/28 03:52:02;;;;;;;17.55;5.95;;;14.10;99.90;;;;;;4882941;29;20135;-88
2022/04/28 03:54:32;;;;;;;16.13;6.70;;;14.10;99.90;;;;;;4882920;29;20508;-88
2022/04/28 03:56:58;;;;;;;28.40;6.65;;;14.10;99.90;;;;;;4882656;29;20028;-88
2022/04/28 03:59:27;;;;;;;16.42;6.32;;;14.10;99.90;;;;;;4882950;29;20045;-89
2022/04/28 04:02:18;;;;;;;14.82;6.30;;;14.00;99.90;;;;;;4898515;29;20044;-89
2022/04/28 04:04:45;;;;;;;18.23;6.68;;;14.10;99.90;;;;;;4882615;29;20536;-88
2022/04/28 04:07:14;;;;;;;20.33;6.75;;;14.10;99.90;;;;;;4882592;29;20152;-89
2022/04/28 04:09:41;;;;;;;21.10;6.65;;;14.10;99.90;;;;;;4898407;29;20036;-85
2022/04/28 04:12:19;;;;;;;19.02;6.13;;;14.10;99.90;;;;;;4947519;28;20030;-89
2022/04/28 04:15:06;;;;;;;21.20;6.95;;;14.10;99.90;;;;;;4975635;28;20042;-89
2022/04/28 04:17:55;;;;;;;18.95;6.47;;;14.10;99.90;;;;;;4969667;28;20031;-88
2022/04/28 04:20:27;;;;;;;19.10;7.18;;;14.10;99.90;;;;;;4959271;28;20038;-87
2022/04/28 04:22:55;;;;;;;22.65;7.13;;;14.10;99.90;;;;;;4958872;28;20488;-87
2022/04/28 04:25:22;;;;;;;20.38;6.63;;;14.20;99.90;;;;;;4958788;28;20365;-89
2022/04/28 04:27:53;;;;;;;15.50;6.15;;;14.10;99.90;;;;;;4959660;28;20035;-87
2022/04/28 04:33:27;;;;;;;19.15;6.28;;;14.20;99.90;;;;;;4974659;28;20081;-89
2022/04/28 04:35:54;;;;;;;20.75;6.07;;;14.20;99.90;;;;;;4958656;28;20034;-90
2022/04/28 04:38:21;;;;;;;26.40;7.43;;;14.30;99.90;;;;;;4958494;28;20039;-87
2022/04/28 04:40:49;;;;;;;20.23;6.38;;;14.30;99.90;;;;;;4958723;28;20023;-88
2022/04/28 04:43:19;;;;;;;15.57;6.32;;;14.40;99.90;;;;;;4958195;28;20034;-89
2022/04/28 04:45:47;;;;;;;21.20;6.60;;;14.40;99.90;;;;;;4958719;28;20031;-88
2022/04/28 04:48:18;;;;;;;18.88;6.10;;;14.50;99.90;;;;;;4974771;28;20035;-89
2022/04/28 04:50:49;;;;;;;13.57;5.30;;;14.60;99.90;;;;;;4959408;28;20026;-89
2022/04/28 04:53:24;;;;;;;21.42;6.07;;;14.70;99.90;;;;;;4959438;28;20484;-89
2022/04/28 04:55:53;;;;;;;17.70;4.80;;;14.80;99.90;;;;;;4958001;28;20063;-87
2022/04/28 04:58:21;;;;;;;22.48;4.70;;;15.00;99.90;;;;;;4958402;28;20061;-87
2022/04/28 05:00:48;;;;;;;21.63;4.57;;;15.30;99.90;;;;;;4958385;28;20090;-87
2022/04/28 05:03:41;;;;;;;17.98;4.22;;;15.50;99.90;;;;;;4956425;28;20039;-87
2022/04/28 05:06:43;;;;;;;21.42;4.25;;;15.50;99.90;;;;;;4897578;29;20080;-87
2022/04/28 05:09:18;;;;;;;12.50;3.80;;;15.50;99.90;;;;;;4881947;29;20052;-87
2022/04/28 05:11:44;;;;;;;20.00;3.90;;;15.80;99.90;;;;;;4881768;29;20040;-88
2022/04/28 05:14:32;;;;;;;12.85;3.90;;;16.00;99.90;;;;;;4882052;29;20045;-88
2022/04/28 05:16:59;;;;;;;16.52;3.67;;;15.90;99.90;;;;;;4881709;29;20537;-87
2022/04/28 05:19:34;;;;;;;19.38;4.13;;;16.00;99.90;;;;;;4881693;29;20036;-89
2022/04/28 05:22:04;;;;;;;12.95;3.08;;;16.00;99.90;;;;;;4897602;29;20111;-89
2022/04/28 05:24:53;;;;;;;14.98;3.40;;;16.20;99.90;;;;;;4897038;29;20041;-88
2022/04/28 05:27:38;;;;;;;21.08;3.90;;;16.30;99.90;;;;;;4897706;29;20155;-88
2022/04/28 05:30:26;;;;;;;16.42;4.10;;;16.10;99.90;;;;;;4897454;29;20043;-89
2022/04/28 05:33:11;;;;;;;14.13;3.70;;;16.30;99.90;;;;;;4881390;29;20024;-87
2022/04/28 05:36:13;;;;;;;13.07;3.88;;;16.40;99.90;;;;;;4886921;29;20044;-89
2022/04/28 05:38:40;;;;;;;12.85;3.67;;;16.50;99.90;;;;;;4881526;29;20520;-88
2022/04/28 05:41:08;;;;;;;18.88;4.18;;;16.50;99.90;;;;;;4933404;28;20039;-88
2022/04/28 05:46:21;;;;;;;12.43;3.28;;;16.70;99.90;;;;;;4957919;28;20037;-89
2022/04/28 05:48:52;;;;;;;14.52;3.75;;;17.10;99.90;;;;;;4942870;28;20175;-88
2022/04/28 05:51:19;;;;;;;11.98;3.25;;;17.00;99.90;;;;;;4942088;28;20543;-89
2022/04/28 05:53:45;;;;;;;13.68;4.05;;;16.70;99.90;;;;;;4941928;28;20092;-88
2022/04/28 05:56:14;;;;;;;13.30;4.05;;;16.90;99.90;;;;;;4941936;28;20023;-89
2022/04/28 05:58:52;;;;;;;12.00;3.08;;;16.70;99.90;;;;;;4942308;28;20043;-88
2022/04/28 06:01:54;;;;;;;12.30;3.45;;;16.90;99.90;;;;;;4886223;29;20386;-88
2022/04/28 06:04:26;;;;;;;17.75;3.97;;;16.80;99.90;;;;;;4932643;28;20118;-90
2022/04/28 06:06:59;;;;;;;14.43;2.90;;;16.90;99.90;;;;;;4942523;28;20030;-91
2022/04/28 06:09:32;;;;;;;14.80;3.25;;;17.00;99.90;;;;;;4946222;28;20039;-90
2022/04/28 06:12:00;;;;;;;10.45;3.35;;;17.00;99.90;;;;;;4945410;28;20031;-89
2022/04/28 06:14:33;;;;;;;20.42;3.60;;;16.90;99.90;;;;;;4946128;28;20031;-88
2022/04/28 06:17:23;;;;;;;12.07;2.95;;;17.10;99.90;;;;;;4929780;28;20043;-88
2022/04/28 06:19:50;;;;;;;16.35;2.88;;;17.10;99.90;;;;;;4944912;28;20033;-88
2022/04/28 06:22:43;;;;;;;18.65;3.20;;;17.40;99.90;;;;;;4963443;28;20066;-89
2022/04/28 06:25:10;;;;;;;10.10;2.85;;;17.40;99.90;;;;;;4945010;28;20496;-88
2022/04/28 06:27:52;;;;;;;11.95;3.38;;;17.60;99.90;;;;;;4945189;28;20039;-89
2022/04/28 06:30:19;;;;;;;13.90;3.28;;;17.80;99.90;;;;;;4944914;28;20034;-88
2022/04/28 06:32:52;;;;;;;14.13;3.13;;;18.40;99.90;;;;;;4945495;28;20022;-87
2022/04/28 06:35:44;;;;;;;12.90;3.28;;;18.10;99.90;;;;;;4947989;28;20041;-88
2022/04/28 06:38:12;;;;;;;10.70;2.30;;;17.90;99.90;;;;;;4944801;28;20043;-88
2022/04/28 06:40:40;;;;;;;21.48;2.60;;;17.90;99.90;;;;;;4944729;28;20118;-88
2022/04/28 06:43:09;;;;;;;10.25;2.72;;;18.20;99.90;;;;;;4944745;28;20487;-88
2022/04/28 06:46:13;;;;;;;11.23;2.40;;;18.10;99.90;;;;;;4963325;28;20464;-89
2022/04/28 06:49:05;;;;;;;10.93;2.67;;;18.20;99.90;;;;;;4937297;28;20038;-88
2022/04/28 06:51:59;;;;;;;10.52;2.47;;;18.60;99.90;;;;;;4899762;29;20113;-87
2022/04/28 06:54:41;;;;;;;14.10;2.20;;;18.50;99.90;;;;;;4899664;29;20037;-88
2022/04/28 06:57:08;;;;;;;20.13;3.13;;;18.60;99.90;;;;;;4883581;29;20159;-87
2022/04/28 06:59:47;;;;;;;7.55;2.55;;;18.30;99.90;;;;;;4883725;29;20119;-89
2022/04/28 07:02:24;;;;;;;13.32;2.33;;;18.50;99.90;;;;;;4883374;29;20119;-88
2022/04/28 07:04:53;;;;;;;10.57;2.60;;;18.40;99.90;;;;;;4883570;29;20044;-88
2022/04/28 07:07:29;;;;;;;13.52;2.30;;;18.20;99.90;;;;;;4883833;29;20052;-87
2022/04/28 07:09:59;;;;;;;9.20;2.10;;;18.50;99.90;;;;;;4883548;29;20044;-88
2022/04/28 07:12:25;;;;;;;14.32;2.22;;;18.40;99.90;;;;;;4883648;29;20036;-88
2022/04/28 07:14:59;;;;;;;10.40;2.83;;;18.80;99.90;;;;;;4899068;29;20031;-88
2022/04/28 07:17:47;;;;;;;10.75;2.28;;;18.60;99.90;;;;;;4899150;29;20077;-87
2022/04/28 07:20:16;;;;;;;11.45;2.78;;;19.20;99.90;;;;;;4883230;29;20039;-88
2022/04/28 07:22:52;;;;;;;10.20;2.20;;;19.00;99.90;;;;;;4884390;29;20076;-86
2022/04/28 07:25:25;;;;;;;15.43;2.88;;;18.90;99.90;;;;;;4883493;29;20088;-87
2022/04/28 07:27:53;;;;;;;11.07;2.80;;;18.60;99.90;;;;;;4894025;28;20041;-86
2022/04/28 07:30:38;;;;;;;8.68;2.22;;;18.20;99.90;;;;;;4962918;28;20519;-90
2022/04/28 07:33:07;;;;;;;7.20;2.22;;;19.30;99.90;;;;;;4943915;28;20546;-89
2022/04/28 07:35:34;;;;;;;8.73;1.80;;;18.80;99.90;;;;;;4960012;28;20054;-89
2022/04/28 07:38:19;;;;;;;10.60;2.13;;;18.70;99.90;;;;;;4962550;28;20109;-88
2022/04/28 07:41:08;;;;;;;10.90;1.75;;;18.90;99.90;;;;;;4963035;28;20376;-89
2022/04/28 07:43:38;;;;;;;13.25;2.17;;;18.70;99.90;;;;;;4943410;28;20051;-89
2022/04/28 07:46:05;;;;;;;7.50;1.55;;;18.80;99.90;;;;;;4943764;28;20023;-86
2022/04/28 07:48:32;;;;;;;7.50;1.98;;;19.20;99.90;;;;;;4943594;28;20066;-88
2022/04/28 07:50:59;;;;;;;6.35;2.33;;;19.10;99.90;;;;;;4943615;28;20057;-86
2022/04/28 07:53:32;;;;;;;12.05;2.08;;;19.50;99.90;;;;;;4943558;28;20034;-87
2022/04/28 07:56:20;;;;;;;8.25;2.22;;;19.40;99.90;;;;;;4943396;28;20039;-86
2022/04/28 07:58:50;;;;;;;12.32;2.53;;;19.40;99.90;;;;;;4920597;29;20091;-87
2022/04/28 08:01:49;;;;;;;6.80;2.25;;;18.80;99.90;;;;;;4898159;29;20077;-88
2022/04/28 08:04:17;;;;;;;8.82;1.80;;;19.00;99.90;;;;;;4882782;29;20048;-86
2022/04/28 08:06:53;;;;;;;5.35;1.92;;;18.80;99.90;;;;;;4883553;29;20116;-86
2022/04/28 08:09:20;;;;;;;9.18;1.80;;;19.00;99.90;;;;;;4882734;29;20045;-87
2022/04/28 08:11:46;;;;;;;5.65;1.58;;;19.30;99.90;;;;;;4882617;29;20483;-87
2022/04/28 08:14:23;;;;;;;8.95;2.30;;;18.90;99.90;;;;;;4882867;29;20092;-87
2022/04/28 08:17:00;;;;;;;7.20;2.25;;;19.00;99.90;;;;;;4882353;29;20037;-87
2022/04/28 08:19:27;;;;;;;5.97;1.65;;;19.50;99.90;;;;;;4883217;29;20049;-86
2022/04/28 08:22:08;;;;;;;7.88;1.48;;;19.00;99.90;;;;;;4884206;29;20048;-86
2022/04/28 08:24:37;;;;;;;9.18;1.63;;;19.40;99.90;;;;;;4882784;29;20052;-86
2022/04/28 08:27:05;;;;;;;8.32;2.08;;;19.50;99.90;;;;;;4882891;29;20039;-88
2022/04/28 08:29:32;;;;;;;11.30;1.83;;;19.70;99.90;;;;;;4890141;29;20108;-87
2022/04/28 08:32:07;;;;;;;;;;;19.40;99.90;;;;;;4887807;29;20071;-88
2022/04/28 08:34:34;;;;;;;8.05;2.38;;;19.20;99.90;;;;;;4902803;29;19911;-87
2022/04/28 08:37:02;;;;;;;6.30;1.75;;;18.90;99.90;;;;;;4908290;28;20041;-88
2022/04/28 08:39:31;;;;;;;8.48;1.90;;;19.30;99.90;;;;;;4946513;28;20043;-88
2022/04/28 08:42:00;;;;;;;15.57;1.65;;;19.30;99.90;;;;;;4945365;28;20037;-87
2022/04/28 08:44:46;;;;;;;8.77;1.95;;;19.00;99.90;;;;;;4970884;28;20065;-88
2022/04/28 08:47:27;;;;;;;12.43;2.38;;;19.30;99.90;;;;;;4962513;28;20488;-88
2022/04/28 08:50:22;;;;;;;10.85;2.25;;;19.80;99.90;;;;;;4949546;29;20055;-87
2022/04/28 08:53:07;;;;;;;7.93;1.92;;;19.30;99.90;;;;;;4957327;29;20054;-88
2022/04/28 08:55:36;;;;;;;5.53;1.45;;;19.40;99.90;;;;;;4939803;29;20031;-89
2022/04/28 08:58:04;;;;;;;6.38;1.90;;;19.60;99.90;;;;;;4939874;29;20046;-89
2022/04/28 09:00:38;;;;;;;7.15;1.75;;;19.20;99.90;;;;;;4939750;29;20023;-90
2022/04/28 09:03:44;;;;;;;8.43;1.70;;;19.20;99.90;;;;;;4897750;29;20144;-91
2022/04/28 09:06:34;;;;;;;13.32;2.35;;;19.60;99.90;;;;;;4897765;29;20051;-90
2022/04/28 09:09:21;;;;;;;11.05;1.90;;;19.20;99.90;;;;;;4942347;29;20042;-90
2022/04/28 09:12:08;;;;;;;10.55;2.22;;;19.40;99.90;;;;;;4955846;29;20038;-91
2022/04/28 09:15:10;;;;;;;12.25;1.80;;;19.70;99.90;;;;;;4955188;29;20166;-91
2022/04/28 09:17:41;;;;;;;7.65;2.00;;;19.30;99.90;;;;;;4942065;29;20035;-90
2022/04/28 09:20:29;;;;;;;;;;;;;;;;;;;;;
2022/04/28 09:23:33;;;;;;;8.95;2.40;;;19.20;99.90;;;;;;4918163;29;20039;-93
2022/04/28 09:26:08;;;;;;;11.65;1.70;;;19.40;99.90;;;;;;4942432;29;20126;-92
2022/04/28 09:28:46;;;;;;;11.48;2.22;;;19.50;99.90;;;;;;4955990;29;20039;-92
2022/04/28 09:31:18;;;;;;;11.40;2.40;;;19.70;99.90;;;;;;4941581;29;20043;-92
2022/04/28 09:34:31;;;;;;;7.35;1.77;;;19.50;99.90;;;;;;4958307;28;20035;-93
2022/04/28 09:37:50;;;;;;;8.32;1.85;;;19.50;99.90;;;;;;4888598;29;20049;-94
2022/04/28 09:43:04;;;;;;;10.55;1.95;;;19.60;99.90;;;;;;4937491;29;20040;-92
2022/04/28 09:45:39;;;;;;;10.80;1.88;;;19.50;99.90;;;;;;4943408;29;20107;-93
2022/04/28 09:48:08;;;;;;;4.50;1.65;;;19.80;99.90;;;;;;4944516;29;20039;-92
2022/04/28 09:50:43;;;;;;;7.82;1.52;;;19.60;99.90;;;;;;4943622;29;20035;-92
2022/04/28 09:53:40;;;;;;;9.60;1.75;;;19.70;99.90;;;;;;4910141;28;20593;-92
2022/04/28 09:56:34;;;;;;;5.60;1.40;;;19.70;99.90;;;;;;4959871;29;20031;-93
2022/04/28 09:59:28;;;;;;;9.95;2.00;;;19.60;99.90;;;;;;4956586;29;20390;-92
2022/04/28 10:01:58;;;;;;;6.38;2.03;;;20.00;99.90;;;;;;4945416;29;20477;-93
2022/04/28 10:04:30;;;;;;;6.45;1.73;;;20.10;99.90;;;;;;4945304;29;20114;-91
2022/04/28 10:08:05;;;;;;;5.85;1.55;;;19.90;99.90;;;;;;4946335;29;20028;-92
2022/04/28 10:10:35;;;;;;;4.72;1.40;;;20.20;99.90;;;;;;4884967;29;20040;-90
2022/04/28 10:13:05;;;;;;;7.82;1.90;;;20.00;99.90;;;;;;4901032;29;20041;-94
2022/04/28 10:15:49;;;;;;;8.50;1.50;;;20.10;99.90;;;;;;4902318;29;20041;-92
2022/04/28 10:18:21;;;;;;;12.07;1.88;;;19.90;99.90;;;;;;4900031;29;20499;-92
2022/04/28 10:20:50;;;;;;;9.25;1.58;;;20.00;99.90;;;;;;4900296;29;20052;-92
2022/04/28 10:35:03;;;;;;;7.03;1.90;;;19.80;99.90;;;;;;4867677;29;20029;-93
2022/04/28 10:37:52;;;;;;;4.18;1.30;;;20.00;99.90;;;;;;4792885;29;20043;-94
2022/04/28 10:40:35;;;;;;;6.22;1.55;;;20.20;99.90;;;;;;4796050;30;20039;-94
2022/04/28 10:43:30;;;;;;;5.70;2.17;;;20.10;99.90;;;;;;4797852;30;20039;-94
2022/04/28 10:46:00;;;;;;;;;;;20.10;99.90;;;;;;4797389;30;20450;-94
2022/04/28 10:48:42;;;;;;;5.53;1.48;;;20.00;99.90;;;;;;4783818;30;19934;-93
2022/04/28 10:51:37;;;;;;;6.32;1.10;;;19.90;99.90;;;;;;4795351;30;20039;-94
2022/04/28 10:54:21;;;;;;;6.95;1.83;;;19.50;99.90;;;;;;4794859;30;20613;-92
2022/04/28 10:56:50;;;;;;;5.50;1.50;;;19.80;99.90;;;;;;4791727;30;20126;-92
2022/04/28 10:59:29;;;;;;;9.40;1.67;;;19.90;99.90;;;;;;4790762;30;20047;-93
2022/04/28 11:01:57;;;;;;;6.97;1.55;;;19.80;99.90;;;;;;4774687;30;20084;-93
2022/04/28 11:04:25;;;;;;;5.18;1.80;;;19.90;99.90;;;;;;4807095;29;20507;-91
2022/04/28 11:06:59;;;;;;;6.03;1.27;;;20.10;99.90;;;;;;4822016;23;20035;-93
2022/04/28 11:09:55;;;;;;;10.00;1.40;;;20.00;99.90;;;;;;4889776;29;20048;-94
2022/04/28 11:12:32;;;;;;;4.85;1.20;;;20.00;99.90;;;;;;4889143;29;20039;-93
2022/04/28 11:15:03;;;;;;;6.50;1.35;;;20.20;99.90;;;;;;4887816;29;20051;-93
2022/04/28 11:17:32;;;;;;;3.88;1.60;;;19.70;99.90;;;;;;4903114;29;20032;-93
2022/04/28 11:20:05;;;;;;;4.28;0.95;;;19.90;99.90;;;;;;4903037;29;20036;-93
2022/04/28 11:22:32;;;;;;;7.53;2.33;;;20.30;99.90;;;;;;4903034;29;20032;-94
2022/04/28 11:25:08;;;;;;;6.95;1.67;;;19.80;99.90;;;;;;4887428;29;20024;-93
2022/04/28 11:27:41;;;;;;;12.55;1.30;;;20.00;99.90;;;;;;4903373;29;20067;-92
2022/04/28 11:30:14;;;;;;;3.60;1.25;;;20.00;99.90;;;;;;4902926;29;20119;-93
2022/04/28 11:33:02;;;;;;;7.25;1.38;;;19.70;99.90;;;;;;4903041;29;20036;-93
2022/04/28 11:35:34;;;;;;;9.55;1.70;;;20.00;99.90;;;;;;4903110;29;20032;-93
2022/04/28 11:38:03;;;;;;;6.53;1.60;;;19.90;99.90;;;;;;4901956;29;20056;-95
2022/04/28 11:40:35;;;;;;;5.10;1.40;;;20.10;99.90;;;;;;4904220;29;20028;-93
2022/04/28 11:43:04;;;;;;;5.47;1.20;;;20.20;99.90;;;;;;4903475;29;20043;-91
2022/04/28 11:45:32;;;;;;;7.57;1.55;;;20.10;99.90;;;;;;4902709;29;20029;-93
2022/04/28 11:48:03;;;;;;;5.82;1.98;;;20.10;99.90;;;;;;4902673;29;20028;-92
2022/04/28 11:50:34;;;;;;;7.47;1.77;;;19.90;99.90;;;;;;4902403;29;20032;-93
2022/04/28 11:53:06;;;;;;;4.80;1.50;;;19.90;99.90;;;;;;4902397;29;20415;-93
2022/04/28 11:55:38;;;;;;;5.20;1.50;;;20.00;99.90;;;;;;4902456;29;20028;-92
2022/04/28 11:58:06;;;;;;;8.38;1.70;;;20.00;99.90;;;;;;4902493;29;20043;-92
2022/04/28 12:00:42;;;;;;;8.98;2.20;;;20.20;99.90;;;;;;4902383;29;20115;-94
2022/04/28 12:03:09;;;;;;;5.28;1.30;;;20.20;99.90;;;;;;4902317;29;20028;-92
2022/04/28 12:05:37;;;;;;;5.20;1.08;;;20.20;99.90;;;;;;4898699;29;20118;-92
2022/04/28 12:08:05;;;;;;;5.40;1.33;;;20.10;99.90;;;;;;4902249;29;20479;-91
2022/04/28 12:16:15;;;;;;;3.97;1.20;;;19.70;99.90;;;;;;4901970;29;20029;-92
2022/04/28 12:21:38;;;;;;;3.03;1.10;;;19.60;99.90;;;;;;4902799;29;20028;-92
2022/04/28 12:24:29;;;;;;;3.92;1.27;;;19.90;99.90;;;;;;4902445;29;20091;-93
2022/04/28 12:26:56;;;;;;;18.95;2.70;;;19.80;99.90;;;;;;4903465;29;20496;-92
2022/04/28 12:29:24;;;;;;;3.42;1.58;;;19.90;99.90;;;;;;4905387;29;20044;-92
2022/04/28 12:31:57;;;;;;;8.63;1.73;;;19.80;99.90;;;;;;4904538;29;20040;-91
2022/04/28 12:34:25;;;;;;;5.75;1.83;;;20.00;99.90;;;;;;4888691;29;20032;-92
2022/04/28 12:36:58;;;;;;;3.88;1.55;;;19.90;99.90;;;;;;4888705;29;20510;-92
2022/04/28 12:39:29;;;;;;;3.97;1.52;;;19.80;99.90;;;;;;4904859;29;20482;-93
2022/04/28 12:41:56;;;;;;;5.97;2.17;;;20.30;99.90;;;;;;4903456;29;20040;-91
2022/04/28 12:44:23;;;;;;;7.25;3.00;;;20.10;99.90;;;;;;4901859;29;20435;-91
2022/04/28 12:46:55;;;;;;;5.40;1.60;;;20.30;99.90;;;;;;4860842;29;20038;-91
2022/04/28 12:49:23;;;;;;;4.05;1.20;;;20.10;99.90;;;;;;4844870;29;20046;-91
2022/04/28 12:51:54;;;;;;;3.97;1.50;;;20.00;99.90;;;;;;4845196;29;20128;-92
2022/04/28 12:54:32;;;;;;;2.50;1.42;;;20.10;99.90;;;;;;4845062;29;20041;-92
2022/04/28 12:57:03;;;;;;;5.10;1.40;;;20.10;99.90;;;;;;4845080;29;20458;-92
2022/04/28 12:59:38;;;;;;;5.57;1.67;;;20.30;99.90;;;;;;4844600;29;20072;-92
2022/04/28 13:02:06;;;;;;;2.60;1.55;;;20.20;99.90;;;;;;4845130;29;20132;-92
2022/04/28 13:04:39;;;;;;;2.53;1.60;;;20.40;99.90;;;;;;4844796;29;20033;-91
2022/04/28 13:07:09;;;;;;;7.70;1.88;;;20.30;99.90;;;;;;4845015;29;20041;-93
2022/04/28 13:09:36;;;;;;;4.97;1.45;;;20.30;99.90;;;;;;4845900;29;20037;-93
2022/04/28 13:12:04;;;;;;;7.85;1.80;;;20.40;99.90;;;;;;4844729;29;20129;-92
2022/04/28 13:14:31;;;;;;;2.90;1.80;;;20.10;99.90;;;;;;4845105;29;20121;-93
2022/04/28 13:16:57;;;;;;;3.40;1.77;;;20.30;99.90;;;;;;4853244;29;20127;-93
2022/04/28 13:19:24;;;;;;;3.05;1.67;;;19.90;99.90;;;;;;4870767;29;20040;-94
2022/04/28 13:21:51;;;;;;;5.28;1.90;;;19.70;99.90;;;;;;4871238;29;20410;-91
2022/04/28 13:24:18;;;;;;;3.38;2.33;;;19.70;99.90;;;;;;4870871;29;20106;-92
2022/04/28 13:26:45;;;;;;;3.53;1.67;;;20.00;99.90;;;;;;4870832;29;20032;-91
2022/04/28 13:29:12;;;;;;;3.85;1.45;;;20.00;99.90;;;;;;4886133;29;20040;-90
2022/04/28 13:31:40;;;;;;;5.55;1.98;;;19.90;99.90;;;;;;4886287;29;20069;-91
2022/04/28 13:34:06;;;;;;;2.92;1.80;;;19.90;99.90;;;;;;4886205;29;20092;-93
2022/04/28 13:36:33;;;;;;;4.18;1.92;;;19.80;99.90;;;;;;4870356;29;20032;-91
2022/04/28 13:38:59;;;;;;;4.22;1.70;;;19.90;99.90;;;;;;4885889;29;20044;-91
2022/04/28 13:41:26;;;;;;;4.45;1.33;;;19.80;99.90;;;;;;4870439;29;20024;-91
2022/04/28 13:44:12;;;;;;;5.05;1.67;;;19.90;99.90;;;;;;4907378;23;20032;-94
2022/04/28 13:46:38;;;;;;;3.22;1.40;;;20.00;99.90;;;;;;4937238;23;20056;-93
2022/04/28 13:49:39;;;;;;;5.18;1.58;;;19.80;99.90;;;;;;4907146;29;20089;-94
2022/04/28 13:52:22;;;;;;;4.50;1.73;;;19.70;99.90;;;;;;4921198;29;20043;-92
2022/04/28 13:54:58;;;;;;;6.20;1.42;;;20.10;99.90;;;;;;4907365;29;20032;-94
2022/04/28 13:57:25;;;;;;;3.95;1.45;;;20.20;99.90;;;;;;4921412;29;20557;-93
2022/04/28 13:59:54;;;;;;;4.40;1.40;;;19.90;99.90;;;;;;4921640;29;20044;-93